createdAt,value
2018-12-11T00:13:58.860Z,1.97
2018-12-11T00:29:05.466Z,1.80
2018-12-11T00:44:12.040Z,2.03
2018-12-11T00:59:18.610Z,2.00
2018-12-11T01:14:25.103Z,1.30
2018-12-11T01:29:31.698Z,1.07
2018-12-11T01:44:38.161Z,1.57
2018-12-11T01:59:44.866Z,1.33
2018-12-11T02:14:51.349Z,1.40
2018-12-11T02:29:58.019Z,1.23
2018-12-11T02:45:04.572Z,1.10
2018-12-11T03:00:11.193Z,1.00
2018-12-11T03:15:18.917Z,1.40
2018-12-11T03:30:25.583Z,1.13
2018-12-11T03:45:32.149Z,1.43
2018-12-11T04:00:38.744Z,1.30
2018-12-11T04:15:45.382Z,1.50
2018-12-11T04:30:51.950Z,1.40
2018-12-11T04:45:58.449Z,1.37
2018-12-11T05:01:05.942Z,1.30
2018-12-11T05:16:12.578Z,1.60
2018-12-11T05:31:19.111Z,1.30
2018-12-11T05:46:25.821Z,1.67
2018-12-11T06:01:32.525Z,1.70
2018-12-11T06:16:39.242Z,1.50
2018-12-11T06:31:45.872Z,1.80
2018-12-11T06:46:52.362Z,1.70
2018-12-11T07:01:59.000Z,1.73
2018-12-11T07:17:05.489Z,1.43
2018-12-11T07:32:11.986Z,1.80
2018-12-11T07:47:18.648Z,1.63
2018-12-11T08:02:25.391Z,2.00
2018-12-11T08:17:31.910Z,2.00
2018-12-11T08:32:38.328Z,1.83
2018-12-11T08:47:45.030Z,1.70
2018-12-11T09:02:51.582Z,2.47
2018-12-11T09:17:58.141Z,2.27
2018-12-11T09:33:04.655Z,1.50
2018-12-11T09:48:11.203Z,1.70
2018-12-11T10:03:17.746Z,1.90
2018-12-11T10:18:24.311Z,1.60
2018-12-11T10:33:31.758Z,2.13
2018-12-11T10:48:38.373Z,1.73
2018-12-11T11:03:44.952Z,1.90
2018-12-11T11:18:51.436Z,2.20
2018-12-11T11:33:58.694Z,2.03
2018-12-11T11:49:05.432Z,1.50
2018-12-11T12:04:12.045Z,2.23
2018-12-11T12:19:18.503Z,1.87
2018-12-11T12:34:25.089Z,1.67
2018-12-11T12:49:31.820Z,1.70
2018-12-11T13:04:38.345Z,1.47
2018-12-11T13:19:44.910Z,2.07
2018-12-11T13:34:51.486Z,1.70
2018-12-11T13:49:58.168Z,1.80
2018-12-11T14:05:04.897Z,2.13
2018-12-11T14:20:11.411Z,1.20
2018-12-11T14:35:17.867Z,1.40
2018-12-11T14:50:24.426Z,2.07
2018-12-11T15:05:31.034Z,1.60
2018-12-11T15:20:37.675Z,1.40
2018-12-11T15:35:44.234Z,1.60
2018-12-11T15:50:51.451Z,2.00
2018-12-11T16:05:58.130Z,1.80
2018-12-11T16:21:04.748Z,1.80
2018-12-11T16:36:11.964Z,2.27
2018-12-11T16:51:18.608Z,2.43
2018-12-11T17:06:25.085Z,2.20
2018-12-11T17:21:32.653Z,1.93
2018-12-11T17:36:40.126Z,2.07
2018-12-11T17:51:48.413Z,3.00
2018-12-11T18:06:55.042Z,2.30
2018-12-11T18:22:01.677Z,2.30
2018-12-11T18:37:10.113Z,2.93
2018-12-11T18:52:16.690Z,2.73
2018-12-11T19:07:23.943Z,2.30
2018-12-11T19:22:33.558Z,3.37
2018-12-11T19:37:40.178Z,3.50
2018-12-11T19:52:48.143Z,3.53
2018-12-11T20:07:54.669Z,4.70
2018-12-11T20:23:01.946Z,4.00
2018-12-11T20:38:08.962Z,2.90
2018-12-11T20:53:16.530Z,3.27
2018-12-11T21:08:26.515Z,3.60
2018-12-11T21:23:33.293Z,4.30
2018-12-11T21:38:39.874Z,3.50
2018-12-11T21:53:46.614Z,3.60
2018-12-11T22:08:53.130Z,3.27
2018-12-11T22:23:59.737Z,3.53
2018-12-11T22:39:09.081Z,3.93
2018-12-11T22:54:16.085Z,3.27
2018-12-11T23:09:22.682Z,3.00
2018-12-11T23:24:29.298Z,3.23
2018-12-11T23:39:35.978Z,3.65
2018-12-11T23:54:42.599Z,3.27
